Time;durP1;ratioP1;P1;durP2;ratioP2;P2;SDS_P1;SDS_P2;PMS_P1;PMS_P2;Temp;Humidity;BMP_temperature;BMP_pressure;BME280_temperature;BME280_humidity;BME280_pressure;Samples;Min_cycle;Max_cycle;Signal;HPM_P1;HPM_P2
2022/09/07 00:02:08;;;;;;;2.10;1.02;;;;;;;22.08;35.89;102263.94;1713348;83;21034;-55
2022/09/07 00:04:36;;;;;;;1.70;1.05;;;;;;;22.07;36.04;102262.20;1713774;84;21038;-56
2022/09/07 00:07:03;;;;;;;1.82;1.07;;;;;;;22.07;36.44;102269.31;1713505;84;21002;-55
2022/09/07 00:09:31;;;;;;;2.55;1.00;;;;;;;22.05;36.30;102272.01;1713621;84;21049;-53
2022/09/07 00:11:58;;;;;;;1.27;1.00;;;;;;;22.05;35.67;102268.03;1713336;83;21057;-55
2022/09/07 00:14:27;;;;;;;1.20;0.88;;;;;;;22.02;35.50;102269.52;1713708;84;21533;-53
2022/09/07 00:16:54;;;;;;;2.47;1.22;;;;;;;22.01;35.61;102266.95;1713501;83;21042;-55
2022/09/07 00:19:21;;;;;;;0.95;0.90;;;;;;;22.00;35.66;102267.86;1713407;83;21030;-53
2022/09/07 00:21:49;;;;;;;1.55;1.17;;;;;;;21.98;35.44;102273.23;1713634;83;21029;-53
2022/09/07 00:24:16;;;;;;;2.77;2.00;;;;;;;21.97;34.83;102266.20;1713392;84;21010;-53
2022/09/07 00:26:43;;;;;;;1.25;1.02;;;;;;;21.95;34.38;102268.06;1713542;83;21038;-53
2022/09/07 00:29:11;;;;;;;4.78;1.00;;;;;;;21.95;34.57;102265.90;1713808;84;21510;-53
2022/09/07 00:31:38;;;;;;;1.45;0.90;;;;;;;21.94;34.83;102265.03;1700885;84;21046;-54
2022/09/07 00:34:05;;;;;;;1.55;1.07;;;;;;;21.92;34.96;102264.23;1713729;84;21083;-56
2022/09/07 00:36:32;;;;;;;1.47;1.00;;;;;;;21.90;35.08;102264.77;1712762;84;21517;-55
2022/09/07 00:38:59;;;;;;;2.02;1.07;;;;;;;21.88;34.66;102262.17;1713470;83;21081;-54
2022/09/07 00:41:27;;;;;;;1.90;0.90;;;;;;;21.87;34.44;102267.55;1713735;83;21078;-53
2022/09/07 00:44:00;;;;;;;1.57;0.98;;;;;;;21.86;34.65;102259.22;1713476;83;21034;-53
2022/09/07 00:46:30;;;;;;;1.62;0.90;;;;;;;21.86;34.88;102260.54;1710658;84;21034;-55
2022/09/07 00:49:06;;;;;;;3.42;1.00;;;;;;;21.85;34.99;102262.78;1714011;83;21507;-53
2022/09/07 00:51:48;;;;;;;0.82;0.62;;;;;;;21.84;34.81;102259.75;1713640;83;20975;-55
2022/09/07 00:54:21;;;;;;;;;;;;;;;21.85;34.65;102259.67;1713341;84;21030;-55
2022/09/07 00:56:49;;;;;;;1.50;0.90;;;;;;;21.84;34.05;102259.75;1658073;86;20116;-53
2022/09/07 00:59:18;;;;;;;1.47;0.95;;;;;;;21.82;33.98;102257.63;1632783;86;21070;-53
2022/09/07 01:01:45;;;;;;;2.87;0.90;;;;;;;21.81;34.20;102259.84;1661589;86;21583;-53
2022/09/07 01:04:12;;;;;;;5.60;1.00;;;;;;;21.80;34.18;102256.31;1658631;86;21079;-58
2022/09/07 01:06:41;;;;;;;2.35;0.90;;;;;;;21.81;34.40;102255.86;1656565;86;21055;-59
2022/09/07 01:09:11;;;;;;;2.60;0.90;;;;;;;21.81;34.70;102257.19;1656914;86;21031;-55
2022/09/07 01:11:40;;;;;;;;;;;;;;;21.80;35.03;102253.67;1616068;87;21116;-53
2022/09/07 01:14:09;;;;;;;3.17;1.00;;;;;;;21.79;35.40;102257.27;1641681;87;20116;-53
2022/09/07 01:17:15;;;;;;;2.45;1.02;;;;;;;21.78;35.43;102254.69;1645211;87;21043;-60
2022/09/07 01:20:20;;;;;;;3.62;1.10;;;;;;;21.77;35.46;102253.83;1644252;87;21052;-55
2022/09/07 01:22:58;;;;;;;4.20;1.05;;;;;;;21.77;35.54;102258.25;1644375;87;21099;-53
2022/09/07 01:25:39;;;;;;;1.37;0.80;;;;;;;21.76;35.00;102255.23;1640832;87;21012;-52
2022/09/07 01:28:26;;;;;;;;;;;;;;;21.76;34.96;102255.23;1645592;87;21079;-58
2022/09/07 01:31:37;;;;;;;3.92;1.25;;;;;;;21.74;35.03;102250.46;1644526;87;20415;-52
2022/09/07 01:34:25;;;;;;;0.88;0.88;;;;;;;21.71;34.88;102248.80;1641792;87;21048;-54
2022/09/07 01:37:23;;;;;;;2.33;1.00;;;;;;;21.70;34.74;102246.23;1644167;87;21056;-52
2022/09/07 01:40:10;;;;;;;2.85;0.93;;;;;;;21.68;34.81;102242.75;1646076;87;21496;-53
2022/09/07 01:42:49;;;;;;;1.62;1.00;;;;;;;21.67;34.65;102250.32;1552738;92;21096;-55
2022/09/07 01:45:17;;;;;;;2.55;0.93;;;;;;;21.65;34.22;102245.55;1484280;95;21110;-56
2022/09/07 01:47:52;;;;;;;2.17;0.80;;;;;;;21.62;33.89;102243.89;1508504;94;21082;-53
2022/09/07 01:50:29;;;;;;;1.35;0.80;;;;;;;21.61;33.62;102241.32;1484926;96;21112;-53
2022/09/07 01:53:10;;;;;;;1.12;0.90;;;;;;;21.60;33.39;102242.23;1479303;96;21642;-57
2022/09/07 01:55:48;;;;;;;1.00;0.90;;;;;;;21.61;33.37;102238.67;1480253;96;21109;-54
2022/09/07 01:58:20;;;;;;;1.70;0.90;;;;;;;21.58;33.43;102237.47;1479103;96;21142;-53
2022/09/07 02:01:07;;;;;;;1.50;0.80;;;;;;;21.59;33.56;102239.20;1477559;96;21600;-55
2022/09/07 02:03:43;;;;;;;3.58;1.20;;;;;;;21.58;33.53;102234.81;1479035;96;21110;-57
2022/09/07 02:06:19;;;;;;;1.75;0.80;;;;;;;21.56;33.50;102230.05;1469753;96;21052;-57
2022/09/07 02:08:57;;;;;;;0.98;0.82;;;;;;;21.54;33.69;102229.26;1447000;99;21113;-53
2022/09/07 02:11:30;;;;;;;1.55;0.93;;;;;;;21.53;33.72;102227.56;1447240;98;21134;-52
2022/09/07 02:14:17;;;;;;;1.00;0.68;;;;;;;21.52;33.75;102227.14;1415501;100;21633;-53
2022/09/07 02:16:56;;;;;;;1.05;0.82;;;;;;;21.51;33.74;102226.77;1398811;102;21151;-52
2022/09/07 02:19:25;;;;;;;2.15;0.90;;;;;;;21.51;33.82;102225.44;1377784;104;21236;-55
2022/09/07 02:21:57;;;;;;;1.15;0.80;;;;;;;21.50;34.02;102222.38;1358386;105;22230;-53
2022/09/07 02:24:29;;;;;;;0.80;0.80;;;;;;;21.49;34.22;102219.34;1358304;105;21190;-54
2022/09/07 02:26:56;;;;;;;1.30;0.72;;;;;;;21.48;34.33;102226.87;1358514;105;21151;-55
2022/09/07 02:29:24;;;;;;;3.00;1.12;;;;;;;21.46;34.13;102223.44;1358436;105;21171;-53
2022/09/07 02:31:51;;;;;;;5.70;0.90;;;;;;;21.45;34.04;102229.69;1349563;105;21215;-53
2022/09/07 02:34:18;;;;;;;0.80;0.80;;;;;;;21.44;33.87;102228.81;1376890;104;21122;-55
2022/09/07 02:36:47;;;;;;;1.65;1.07;;;;;;;21.43;33.67;102223.59;1380053;104;21148;-52
2022/09/07 02:39:14;;;;;;;1.22;0.88;;;;;;;21.42;33.45;102223.18;1395524;101;21089;-55
2022/09/07 02:41:42;;;;;;;0.78;0.78;;;;;;;21.40;33.36;102211.80;1413650;100;21704;-52
2022/09/07 02:44:19;;;;;;;1.00;0.88;;;;;;;21.39;33.24;102217.55;1464419;96;21123;-53
2022/09/07 02:47:33;;;;;;;2.05;0.98;;;;;;;21.37;33.22;102223.37;1463001;96;21114;-53
2022/09/07 02:50:41;;;;;;;1.25;0.80;;;;;;;21.37;33.13;102222.54;1497478;95;21126;-56
2022/09/07 02:53:22;;;;;;;1.57;1.00;;;;;;;21.36;32.96;102232.72;1498524;95;21158;-55
2022/09/07 02:56:05;;;;;;;1.77;1.00;;;;;;;21.34;32.97;102229.27;1499395;95;21188;-55
2022/09/07 02:58:55;;;;;;;1.60;0.90;;;;;;;21.32;33.27;102229.34;1500156;94;21661;-52
2022/09/07 03:02:02;;;;;;;1.32;0.90;;;;;;;21.31;33.55;102238.69;1501199;94;21090;-57
2022/09/07 03:04:46;;;;;;;1.72;0.98;;;;;;;21.29;33.66;102233.92;1501779;94;21146;-56
2022/09/07 03:07:31;;;;;;;1.92;0.90;;;;;;;21.25;33.45;102239.79;1556976;91;22259;-55
2022/09/07 03:10:00;;;;;;;2.58;1.20;;;;;;;21.24;33.60;102247.80;1485302;93;21084;-59
2022/09/07 03:12:40;;;;;;;1.25;1.00;;;;;;;21.23;33.71;102247.39;1490022;95;21704;-53
2022/09/07 03:15:12;;;;;;;1.10;0.70;;;;;;;21.22;33.73;102246.55;1501708;95;21073;-55
2022/09/07 03:17:40;;;;;;;2.15;1.02;;;;;;;21.22;33.82;102252.30;1447820;98;21113;-54
2022/09/07 03:20:09;;;;;;;2.15;1.00;;;;;;;21.21;33.83;102243.95;1447990;98;21138;-57
2022/09/07 03:22:36;;;;;;;1.12;0.98;;;;;;;21.20;33.62;102243.56;1447730;98;21121;-54
2022/09/07 03:25:05;;;;;;;1.47;1.07;;;;;;;21.19;33.52;102245.80;1447974;98;21085;-55
2022/09/07 03:27:32;;;;;;;2.08;1.10;;;;;;;21.19;33.46;102240.51;1447922;98;21091;-54
2022/09/07 03:29:59;;;;;;;0.80;0.80;;;;;;;21.19;33.75;102240.51;1447812;98;21679;-53
2022/09/07 03:32:31;;;;;;;5.65;1.57;;;;;;;21.18;33.84;102254.69;1448069;98;21640;-53
2022/09/07 03:34:58;;;;;;;1.25;1.00;;;;;;;21.16;33.81;102252.11;1447920;98;21141;-55
2022/09/07 03:37:25;;;;;;;3.65;1.10;;;;;;;21.16;33.51;102256.53;1447921;98;21115;-55
2022/09/07 03:39:52;;;;;;;1.98;1.17;;;;;;;21.15;33.21;102257.44;1447817;99;21662;-55
2022/09/07 03:42:19;;;;;;;1.57;1.10;;;;;;;21.15;33.28;102257.44;1447750;98;21164;-53
2022/09/07 03:44:50;;;;;;;1.87;1.10;;;;;;;21.14;33.35;102259.70;1447715;98;21634;-54
2022/09/07 03:47:17;;;;;;;1.07;1.02;;;;;;;21.13;33.27;102250.03;1473429;96;21105;-53
2022/09/07 03:49:44;;;;;;;1.55;0.95;;;;;;;21.13;33.31;102260.63;1502539;94;21130;-59
2022/09/07 03:52:11;;;;;;;2.20;1.00;;;;;;;21.11;33.34;102260.69;1520406;93;21558;-56
2022/09/07 03:54:38;;;;;;;2.15;0.80;;;;;;;21.12;33.56;102256.27;1520275;93;21066;-53
2022/09/07 03:57:06;;;;;;;0.95;0.80;;;;;;;21.12;33.75;102252.30;1520384;93;21174;-53
2022/09/07 03:59:33;;;;;;;3.00;1.22;;;;;;;21.12;33.81;102264.20;1520251;93;21136;-55
2022/09/07 04:02:00;;;;;;;1.35;0.93;;;;;;;21.11;33.66;102265.11;1520207;93;21569;-56
2022/09/07 04:04:28;;;;;;;1.35;1.10;;;;;;;21.12;33.70;102265.08;1520404;93;21146;-54
2022/09/07 04:06:55;;;;;;;1.02;0.90;;;;;;;21.13;33.86;102273.86;1601226;90;21108;-53
2022/09/07 04:09:22;;;;;;;0.98;0.80;;;;;;;21.13;34.05;102276.05;1601487;88;21111;-59
2022/09/07 04:11:49;;;;;;;1.72;0.90;;;;;;;21.14;34.20;102283.53;1625173;86;21120;-53
2022/09/07 04:14:17;;;;;;;1.52;1.00;;;;;;;21.14;34.32;102275.59;1635099;87;21505;-52
2022/09/07 04:16:44;;;;;;;1.60;1.00;;;;;;;21.15;34.17;102281.27;1635007;87;21580;-55
2022/09/07 04:19:11;;;;;;;1.07;0.98;;;;;;;21.15;34.27;102282.14;1634888;87;21073;-55
2022/09/07 04:21:38;;;;;;;1.00;0.90;;;;;;;21.18;34.30;102273.22;1689550;83;21569;-55
2022/09/07 04:24:06;;;;;;;2.85;1.07;;;;;;;21.17;34.30;102273.67;1706671;83;21096;-53
2022/09/07 04:26:34;;;;;;;1.65;1.30;;;;;;;21.20;34.52;102277.98;1706994;83;21021;-56
2022/09/07 04:29:02;;;;;;;1.52;0.80;;;;;;;21.20;34.53;102281.95;1706716;84;21079;-53
2022/09/07 04:31:29;;;;;;;1.75;1.22;;;;;;;21.22;34.43;102277.45;1706706;84;21051;-53
2022/09/07 04:33:56;;;;;;;1.85;1.10;;;;;;;21.24;34.26;102279.58;1706991;83;20985;-54
2022/09/07 04:36:24;;;;;;;1.62;1.20;;;;;;;21.25;34.25;102274.66;1707017;83;21044;-55
2022/09/07 04:41:29;;;;;;;1.42;1.10;;;;;;;21.29;34.27;102273.64;1609975;88;21048;-55
2022/09/07 04:43:59;;;;;;;1.30;1.20;;;;;;;21.30;34.39;102268.72;1609780;89;21062;-53
2022/09/07 04:46:28;;;;;;;2.98;1.25;;;;;;;21.32;34.39;102275.69;1610233;89;20992;-53
2022/09/07 04:48:57;;;;;;;1.87;1.17;;;;;;;21.34;34.18;102276.94;1609942;89;21226;-56
2022/09/07 04:51:29;;;;;;;4.80;1.60;;;;;;;21.35;34.13;102281.32;1610053;88;21497;-55
2022/09/07 04:53:56;;;;;;;;;;;;;;;21.37;34.27;102279.47;1612243;88;21045;-61
2022/09/07 04:56:24;;;;;;;1.32;1.20;;;;;;;21.40;34.57;102280.19;1606858;88;20128;-58
2022/09/07 04:58:51;;;;;;;1.40;1.30;;;;;;;21.41;34.48;102270.47;1610156;88;21524;-53
2022/09/07 05:01:20;;;;;;;1.22;1.12;;;;;;;21.43;34.47;102279.20;1610130;89;21045;-55
2022/09/07 05:03:48;;;;;;;1.70;1.30;;;;;;;21.44;34.70;102274.29;1610006;88;21013;-55
2022/09/07 05:06:16;;;;;;;3.62;1.12;;;;;;;21.47;34.68;102271.52;1610150;89;21536;-53
2022/09/07 05:08:46;;;;;;;2.87;1.27;;;;;;;21.49;34.62;102268.34;1609769;88;21040;-54
2022/09/07 05:11:15;;;;;;;3.02;1.30;;;;;;;21.52;34.82;102266.88;1599045;88;21056;-56
2022/09/07 05:13:43;;;;;;;2.58;1.50;;;;;;;21.54;34.98;102268.98;1607105;89;21099;-55
2022/09/07 05:16:15;;;;;;;2.37;1.17;;;;;;;21.57;34.85;102266.22;1606962;89;21550;-53
2022/09/07 05:18:42;;;;;;;2.20;1.40;;;;;;;21.59;34.99;102270.53;1607033;89;21073;-56
2022/09/07 05:21:14;;;;;;;1.20;1.10;;;;;;;21.62;35.14;102269.52;1606760;88;21588;-54
2022/09/07 05:23:42;;;;;;;3.05;1.17;;;;;;;21.64;35.21;102274.28;1596688;89;21061;-53
2022/09/07 05:26:10;;;;;;;1.77;1.27;;;;;;;21.68;34.95;102274.55;1606962;88;21030;-53
2022/09/07 05:28:38;;;;;;;1.00;0.85;;;;;;;21.70;34.80;102274.05;1607398;88;21609;-56
2022/09/07 05:31:10;;;;;;;2.55;1.20;;;;;;;21.72;35.01;102273.52;1607037;89;21042;-53
2022/09/07 05:33:37;;;;;;;1.42;1.32;;;;;;;21.75;35.25;102274.23;1605863;89;21059;-55
2022/09/07 05:36:06;;;;;;;1.40;1.12;;;;;;;21.79;35.38;102274.95;1607061;89;21032;-53
2022/09/07 05:38:35;;;;;;;1.60;1.20;;;;;;;21.80;35.19;102273.54;1677512;84;21050;-53
2022/09/07 05:41:13;;;;;;;1.42;1.10;;;;;;;21.85;34.97;102286.63;1716042;84;21496;-56
2022/09/07 05:43:40;;;;;;;0.80;0.80;;;;;;;21.87;34.90;102280.80;1716190;84;21525;-53
2022/09/07 05:46:08;;;;;;;1.85;1.10;;;;;;;21.91;34.92;102287.68;1716145;84;21018;-55
2022/09/07 05:48:35;;;;;;;1.00;0.80;;;;;;;21.96;35.00;102286.16;1715877;84;21026;-58
2022/09/07 05:51:02;;;;;;;0.80;0.70;;;;;;;21.98;35.09;102286.48;1716250;84;20990;-58
2022/09/07 05:53:29;;;;;;;4.10;0.82;;;;;;;22.01;34.81;102286.33;1715979;84;21018;-58
2022/09/07 05:56:00;;;;;;;1.50;0.90;;;;;;;22.05;34.33;102293.22;1716126;84;21487;-54
2022/09/07 05:58:27;;;;;;;2.52;1.87;;;;;;;22.09;34.68;102292.64;1711028;84;21488;-54
2022/09/07 06:01:06;;;;;;;2.70;1.22;;;;;;;22.16;34.62;102300.69;1715862;84;21062;-55
2022/09/07 06:03:34;;;;;;;1.75;0.88;;;;;;;22.22;34.67;102300.41;1713505;84;21025;-56
2022/09/07 06:06:09;;;;;;;5.50;1.20;;;;;;;22.35;34.70;102299.80;1716239;84;21120;-53
2022/09/07 06:08:39;;;;;;;3.40;1.32;;;;;;;22.51;34.62;102302.13;1716164;84;21069;-56
2022/09/07 06:11:10;;;;;;;4.90;1.20;;;;;;;22.65;34.76;102303.69;1715844;84;21078;-54
2022/09/07 06:13:41;;;;;;;1.98;1.10;;;;;;;22.75;34.85;102304.59;1716035;84;21054;-54
2022/09/07 06:16:10;;;;;;;1.80;0.93;;;;;;;22.82;34.72;102304.66;1716185;84;21021;-54
2022/09/07 06:18:43;;;;;;;1.45;1.00;;;;;;;22.92;34.56;102311.25;1716245;84;21046;-55
2022/09/07 06:21:20;;;;;;;1.25;1.05;;;;;;;22.99;34.17;102312.69;1716174;84;21002;-54
2022/09/07 06:23:49;;;;;;;2.02;1.20;;;;;;;23.06;34.34;102314.95;1682675;85;21516;-53
2022/09/07 06:26:16;;;;;;;1.82;1.10;;;;;;;23.13;34.32;102314.19;1651985;87;21043;-53
2022/09/07 06:28:46;;;;;;;2.42;1.10;;;;;;;23.20;34.27;102322.26;1640910;87;21087;-61
2022/09/07 06:31:16;;;;;;;1.85;0.93;;;;;;;23.29;33.99;102321.78;1641085;87;21054;-57
2022/09/07 06:33:46;;;;;;;1.15;1.05;;;;;;;23.38;34.04;102317.38;1641072;87;21039;-58
2022/09/07 06:36:19;;;;;;;1.52;1.02;;;;;;;23.44;33.81;102318.40;1641044;87;21621;-56
2022/09/07 06:38:47;;;;;;;2.80;1.10;;;;;;;23.48;33.69;102317.30;1619419;89;21039;-61
2022/09/07 06:41:18;;;;;;;2.00;1.02;;;;;;;23.49;33.62;102328.34;1662749;86;21025;-54
2022/09/07 06:43:45;;;;;;;2.22;1.15;;;;;;;23.51;33.50;102328.25;1662691;86;21593;-55
2022/09/07 06:46:12;;;;;;;1.60;1.20;;;;;;;23.52;33.54;102329.49;1662667;86;21037;-56
2022/09/07 06:48:40;;;;;;;1.15;1.07;;;;;;;23.54;33.72;102327.62;1659721;86;21585;-56
2022/09/07 06:51:15;;;;;;;1.20;1.10;;;;;;;23.56;33.80;102335.05;1662131;86;21073;-54
2022/09/07 06:53:42;;;;;;;1.40;1.10;;;;;;;23.58;33.70;102337.16;1662635;86;21577;-55
2022/09/07 06:56:13;;;;;;;1.20;0.90;;;;;;;23.60;33.48;102337.94;1662599;86;21512;-54
2022/09/07 06:58:41;;;;;;;1.42;0.98;;;;;;;23.61;33.60;102339.67;1662754;86;21025;-54
2022/09/07 07:01:12;;;;;;;2.87;1.15;;;;;;;23.61;33.95;102340.12;1677742;85;21517;-58
2022/09/07 07:03:39;;;;;;;2.62;1.00;;;;;;;23.62;34.15;102337.39;1692051;85;21042;-56
2022/09/07 07:06:07;;;;;;;1.05;0.95;;;;;;;23.66;34.26;102347.41;1691772;85;21017;-54
2022/09/07 07:08:35;;;;;;;2.35;1.10;;;;;;;23.70;33.77;102341.84;1692321;85;21617;-55
2022/09/07 07:11:04;;;;;;;1.27;1.17;;;;;;;23.75;33.98;102342.48;1691889;85;21521;-56
2022/09/07 07:13:36;;;;;;;1.60;1.05;;;;;;;23.79;33.66;102349.35;1691822;84;21532;-58
2022/09/07 07:16:10;;;;;;;0.90;0.90;;;;;;;23.83;33.77;102348.25;1691727;85;21002;-56
2022/09/07 07:18:38;;;;;;;1.95;1.25;;;;;;;23.85;33.97;102345.51;1648752;87;21703;-54
2022/09/07 07:21:08;;;;;;;1.07;0.90;;;;;;;23.87;34.35;102348.48;1614935;89;21108;-54
2022/09/07 07:23:35;;;;;;;1.80;1.10;;;;;;;23.93;34.57;102347.30;1615349;89;21048;-60
2022/09/07 07:26:07;;;;;;;1.40;1.00;;;;;;;24.05;34.39;102350.20;1615223;89;21862;-60
2022/09/07 07:28:35;;;;;;;2.17;1.17;;;;;;;24.21;34.05;102352.44;1649222;87;21083;-55
2022/09/07 07:31:03;;;;;;;5.87;1.40;;;;;;;24.38;33.34;102356.02;1614798;89;21100;-55
2022/09/07 07:33:32;;;;;;;2.05;1.22;;;;;;;24.46;32.76;102354.63;1649086;87;21005;-55
2022/09/07 07:36:19;;;;;;;1.42;1.15;;;;;;;24.52;32.80;102352.13;1615045;89;21105;-53
2022/09/07 07:38:49;;;;;;;1.35;1.12;;;;;;;24.52;32.80;102352.13;1649264;87;21104;-54
2022/09/07 07:41:18;;;;;;;1.95;1.07;;;;;;;24.51;32.54;102350.40;1608548;89;21041;-55
2022/09/07 07:43:45;;;;;;;1.60;1.10;;;;;;;24.48;32.87;102358.10;1579540;91;21092;-55
2022/09/07 07:46:14;;;;;;;2.22;1.10;;;;;;;24.48;32.87;102358.10;1579336;91;21671;-56
2022/09/07 07:48:41;;;;;;;1.32;1.02;;;;;;;24.49;32.22;102360.27;1579530;91;21089;-54
2022/09/07 07:53:39;;;;;;;1.40;1.25;;;;;;;24.43;32.40;102360.60;1589900;90;21086;-54
2022/09/07 07:56:06;;;;;;;2.70;0.95;;;;;;;24.44;32.20;102357.02;1604937;89;21093;-55
2022/09/07 07:58:34;;;;;;;1.15;1.00;;;;;;;24.41;32.27;102361.16;1599349;89;21089;-58
2022/09/07 08:01:09;;;;;;;1.30;1.12;;;;;;;24.39;32.37;102357.26;1596295;89;21058;-56
2022/09/07 08:03:38;;;;;;;1.25;1.15;;;;;;;24.39;32.27;102355.06;1606137;88;21069;-56
2022/09/07 08:06:16;;;;;;;1.52;1.07;;;;;;;24.39;32.31;102356.39;1615540;87;21539;-55
2022/09/07 08:08:44;;;;;;;1.15;0.95;;;;;;;24.39;32.51;102352.40;1605474;88;21072;-58
2022/09/07 08:11:19;;;;;;;1.98;0.90;;;;;;;24.39;32.83;102347.95;1615818;87;21043;-55
2022/09/07 08:13:48;;;;;;;1.87;1.15;;;;;;;24.41;32.78;102347.85;1586638;88;21128;-55
2022/09/07 08:16:16;;;;;;;1.30;0.90;;;;;;;24.42;33.05;102349.59;1564671;90;21084;-54
2022/09/07 08:18:44;;;;;;;3.65;1.00;;;;;;;24.43;32.79;102348.63;1636204;86;21061;-55
2022/09/07 08:21:13;;;;;;;2.00;0.90;;;;;;;24.46;32.76;102354.63;1633656;86;22211;-55
2022/09/07 08:23:40;;;;;;;1.20;0.90;;;;;;;24.47;33.14;102352.84;1632130;86;21037;-61
2022/09/07 08:26:08;;;;;;;2.83;0.90;;;;;;;24.47;33.02;102352.84;1631940;87;21005;-59
2022/09/07 08:28:37;;;;;;;1.87;1.27;;;;;;;24.46;32.97;102348.48;1631527;86;21033;-54
2022/09/07 08:31:05;;;;;;;1.67;1.00;;;;;;;24.47;32.57;102348.84;1631285;86;21068;-57
2022/09/07 08:33:36;;;;;;;2.02;0.80;;;;;;;24.48;32.45;102350.58;1632084;86;21048;-57
2022/09/07 08:36:17;;;;;;;1.45;1.20;;;;;;;24.49;32.22;102349.16;1637222;86;21541;-54
2022/09/07 08:38:44;;;;;;;1.27;0.80;;;;;;;24.51;32.15;102341.09;1573639;90;21456;-59
2022/09/07 08:41:49;;;;;;;2.27;1.07;;;;;;;24.53;31.42;102339.20;1573542;90;21117;-56
2022/09/07 08:44:36;;;;;;;7.40;5.50;;;;;;;24.55;31.53;102335.52;1569569;90;21681;-52
2022/09/07 08:47:15;;;;;;;9.55;8.55;;;;;;;24.59;31.53;102338.86;1570887;90;21085;-55
2022/09/07 08:49:47;;;;;;;3.70;3.22;;;;;;;24.61;31.43;102328.98;1583807;88;21595;-59
2022/09/07 08:52:25;;;;;;;1.60;1.30;;;;;;;24.64;31.10;102335.48;1626138;86;21028;-54
2022/09/07 08:55:27;;;;;;;1.10;1.00;;;;;;;24.65;30.88;102331.40;1532085;92;21156;-54
2022/09/07 08:58:21;;;;;;;1.22;0.85;;;;;;;24.69;31.12;102334.77;1537490;92;21553;-57
2022/09/07 09:00:48;;;;;;;1.25;1.10;;;;;;;24.72;31.04;102325.27;1518855;93;21619;-56
2022/09/07 09:03:23;;;;;;;2.05;0.80;;;;;;;24.73;30.84;102315.02;1511955;93;21147;-54
2022/09/07 09:06:30;;;;;;;2.98;0.90;;;;;;;24.79;30.73;102323.53;1481427;96;21057;-54
2022/09/07 09:09:19;;;;;;;1.42;0.80;;;;;;;24.84;30.43;102317.95;1475514;96;21136;-56
2022/09/07 09:11:59;;;;;;;2.35;0.85;;;;;;;24.87;30.20;102317.79;1481414;96;21102;-55
2022/09/07 09:14:34;;;;;;;1.98;0.90;;;;;;;24.91;29.98;102320.66;1513640;93;21139;-54
2022/09/07 09:17:31;;;;;;;2.70;0.93;;;;;;;24.90;29.61;102325.59;1512032;94;21124;-54
2022/09/07 09:20:25;;;;;;;1.10;0.88;;;;;;;24.85;29.95;102317.85;1512014;94;21093;-56
2022/09/07 09:23:03;;;;;;;2.35;0.70;;;;;;;24.82;29.72;102314.52;1504427;94;21116;-56
2022/09/07 09:25:32;;;;;;;1.65;0.78;;;;;;;24.84;29.51;102316.16;1464534;97;21094;-54
2022/09/07 09:27:59;;;;;;;1.77;1.02;;;;;;;24.82;29.84;102307.86;1466444;97;21156;-54
2022/09/07 09:30:27;;;;;;;1.22;0.90;;;;;;;24.82;29.84;102307.86;1469622;97;21071;-55
2022/09/07 09:33:19;;;;;;;3.22;1.10;;;;;;;24.83;29.80;102310.92;1506169;94;21147;-56
2022/09/07 09:35:50;;;;;;;1.30;0.90;;;;;;;24.81;29.79;102306.16;1510189;94;21134;-55
2022/09/07 09:38:39;;;;;;;1.35;1.00;;;;;;;24.80;29.62;102304.42;1510621;94;21120;-55
2022/09/07 09:41:11;;;;;;;1.32;0.85;;;;;;;24.79;29.75;102309.38;1510597;94;21572;-54
2022/09/07 09:43:55;;;;;;;2.83;1.35;;;;;;;24.76;29.75;102308.20;1507816;94;21124;-55
2022/09/07 09:46:33;;;;;;;1.37;1.25;;;;;;;24.72;29.90;102306.63;1505204;93;21656;-54
2022/09/07 09:49:19;;;;;;;1.55;0.85;;;;;;;24.67;30.37;102316.66;1508178;94;21051;-53
2022/09/07 09:51:51;;;;;;;1.45;0.80;;;;;;;24.65;30.41;102315.89;1507281;94;21608;-55
2022/09/07 09:54:35;;;;;;;2.62;1.02;;;;;;;24.61;30.62;102314.34;1507969;94;21091;-57
2022/09/07 09:57:02;;;;;;;2.80;1.10;;;;;;;24.56;31.56;102309.77;1508375;94;21106;-54
2022/09/07 09:59:31;;;;;;;0.72;0.72;;;;;;;24.59;31.75;102317.56;1508107;94;21136;-54
2022/09/07 10:01:58;;;;;;;1.70;0.80;;;;;;;24.59;31.75;102317.56;1519049;91;21057;-56
2022/09/07 10:04:33;;;;;;;1.47;1.00;;;;;;;24.66;31.47;102316.30;1522320;92;21192;-53
2022/09/07 10:07:24;;;;;;;1.02;0.90;;;;;;;24.70;31.57;102314.71;1555385;90;21060;-53
2022/09/07 10:09:52;;;;;;;1.35;1.00;;;;;;;24.72;31.31;102314.16;1548766;90;21096;-54
2022/09/07 10:12:25;;;;;;;1.22;0.88;;;;;;;24.73;30.91;102312.36;1526951;92;21139;-55
2022/09/07 10:14:51;;;;;;;1.35;0.70;;;;;;;24.73;30.91;102312.36;1443954;99;21158;-57
2022/09/07 10:17:34;;;;;;;1.27;0.98;;;;;;;24.73;30.97;102313.69;1461062;96;21591;-54
2022/09/07 10:20:14;;;;;;;3.12;1.00;;;;;;;24.71;30.60;102298.27;1541133;92;21081;-57
2022/09/07 10:22:57;;;;;;;2.92;1.10;;;;;;;24.71;30.60;102298.27;1577661;90;21599;-53
2022/09/07 10:25:38;;;;;;;1.67;1.20;;;;;;;24.73;30.45;102304.37;1582309;89;21532;-55
2022/09/07 10:28:18;;;;;;;1.50;1.00;;;;;;;24.70;30.29;102307.19;1582587;89;21039;-57
2022/09/07 10:31:02;;;;;;;1.17;1.00;;;;;;;24.68;30.42;102309.08;1582909;90;21097;-56
2022/09/07 10:34:25;;;;;;;1.50;1.07;;;;;;;24.68;30.63;102306.42;1582362;90;21096;-54
2022/09/07 10:37:07;;;;;;;1.35;0.90;;;;;;;24.68;30.63;102306.42;1583070;89;21073;-54
2022/09/07 10:39:44;;;;;;;0.93;0.80;;;;;;;24.69;30.80;102309.48;1521508;93;21054;-61
2022/09/07 10:42:28;;;;;;;1.25;1.00;;;;;;;24.71;30.94;102308.92;1522346;93;21073;-59
2022/09/07 10:45:19;;;;;;;1.20;1.10;;;;;;;24.73;31.18;102303.91;1510891;94;21120;-59
2022/09/07 10:48:15;;;;;;;1.82;1.12;;;;;;;24.75;31.01;102302.02;1472831;97;21155;-53
2022/09/07 10:50:52;;;;;;;1.45;1.02;;;;;;;24.78;30.71;102314.30;1471740;97;21167;-55
2022/09/07 10:53:51;;;;;;;1.07;1.00;;;;;;;24.81;31.06;102312.31;1478235;96;21060;-56
2022/09/07 10:56:29;;;;;;;2.67;0.90;;;;;;;24.82;30.52;102311.85;1441306;97;21135;-58
2022/09/07 10:59:19;;;;;;;2.15;0.80;;;;;;;24.82;30.52;102311.85;1405190;100;21194;-55
2022/09/07 11:02:12;;;;;;;0.93;0.90;;;;;;;24.82;30.76;102305.20;1358345;105;21134;-54
2022/09/07 11:05:08;;;;;;;4.85;1.45;;;;;;;24.82;30.76;102305.20;1362401;105;21222;-59
2022/09/07 11:08:09;;;;;;;3.15;1.05;;;;;;;24.81;30.47;102295.51;1350269;105;21173;-57
2022/09/07 11:11:42;;;;;;;4.00;0.70;;;;;;;24.81;30.47;102295.51;1271259;111;21804;-61
2022/09/07 11:14:14;;;;;;;1.12;1.02;;;;;;;24.80;30.02;102292.45;1258377;112;21709;-59
2022/09/07 11:16:46;;;;;;;2.52;1.05;;;;;;;24.78;30.38;102289.01;1257646;112;21654;-54
2022/09/07 11:20:41;;;;;;;1.35;0.90;;;;;;;24.77;30.75;102292.14;1235384;116;21662;-57
2022/09/07 11:35:28;;;;;;;1.35;1.00;;;;;;;24.80;32.72;102273.81;1253549;114;21693;-56
2022/09/07 11:43:23;;;;;;;0.72;0.72;;;;;;;25.06;32.01;102254.51;1286342;109;21230;-54
2022/09/07 11:46:03;;;;;;;2.08;1.02;;;;;;;25.16;31.41;102241.06;1293944;110;21357;-54
2022/09/07 11:48:55;;;;;;;1.02;0.80;;;;;;;25.19;31.76;102230.20;1328112;106;21529;-55
2022/09/07 11:51:44;;;;;;;0.80;0.78;;;;;;;25.28;31.54;102233.67;1295544;110;21542;-57
2022/09/07 11:54:28;;;;;;;1.25;0.90;;;;;;;25.33;31.21;102239.56;1286341;111;21294;-56
2022/09/07 11:57:00;;;;;;;1.37;0.90;;;;;;;25.38;31.12;102248.16;1301389;110;21185;-61
2022/09/07 11:59:50;;;;;;;6.65;1.32;;;;;;;25.44;30.99;102250.48;1296424;110;21211;-54
2022/09/07 12:02:49;;;;;;;2.10;1.25;;;;;;;25.49;30.66;102247.05;1297761;110;21175;-55
2022/09/07 12:05:40;;;;;;;1.05;0.90;;;;;;;25.60;29.78;102247.73;1330678;107;21223;-61
2022/09/07 12:08:38;;;;;;;1.55;1.07;;;;;;;25.60;29.78;102247.73;1333609;108;21180;-56
2022/09/07 12:11:26;;;;;;;2.50;1.00;;;;;;;25.62;30.07;102240.50;1332706;108;21192;-56
2022/09/07 12:14:20;;;;;;;2.33;1.00;;;;;;;25.65;30.02;102242.98;1333194;107;21259;-56
2022/09/07 12:17:15;;;;;;;1.47;1.00;;;;;;;25.68;29.78;102240.98;1336675;107;21296;-54
2022/09/07 12:19:42;;;;;;;1.17;0.90;;;;;;;25.70;30.28;102226.22;1337547;107;21161;-56
2022/09/07 12:22:20;;;;;;;1.17;1.07;;;;;;;25.70;30.28;102226.22;1337139;107;21202;-54
2022/09/07 12:24:53;;;;;;;1.25;1.00;;;;;;;25.71;30.14;102224.81;1325068;107;21254;-55